Terminal Aerodrome Forecast
Issued by NWS

Home | Current Version | Previous Version | Graphics & Text | Print | Product List | Glossary On
Versions: 1 2 3 4 5 6 7 8 9 10 11 12 13 14 15 16
187
FTUS43 KMPX 261720
TAFRNH
TAF
KRNH 261720Z 2618/2718 33012KT P6SM SCT050
     FM262100 33008KT P6SM SCT050
     FM270100 28003KT P6SM SKC
     FM271500 22008KT P6SM SCT250=

USA.gov is the U.S. government's official web portal to all federal, state and local government web resources and services.